createdAt,value
2023-01-13T00:00:38.262Z,98751.03
2023-01-13T00:03:08.321Z,98740.19
2023-01-13T00:05:38.029Z,98741.00
2023-01-13T00:08:06.649Z,98733.59
2023-01-13T00:10:35.861Z,98736.19
2023-01-13T00:13:05.586Z,98725.34
2023-01-13T00:15:34.665Z,98723.34
2023-01-13T00:18:03.220Z,98713.25
2023-01-13T00:20:33.156Z,98702.81
2023-01-13T00:23:01.801Z,98710.66
2023-01-13T00:25:30.355Z,98718.66
2023-01-13T00:27:58.919Z,98708.22
2023-01-13T00:30:27.474Z,98717.22
2023-01-13T00:32:56.084Z,98716.25
2023-01-13T00:35:24.638Z,98714.88
2023-01-13T00:37:54.627Z,98713.66
2023-01-13T00:40:23.313Z,98704.66
2023-01-13T00:43:10.671Z,98703.00
2023-01-13T00:45:39.561Z,98699.72
2023-01-13T00:48:08.326Z,98696.69
2023-01-13T00:50:36.955Z,98688.31
2023-01-13T00:53:06.900Z,98688.94
2023-01-13T00:55:35.503Z,98683.88
2023-01-13T00:58:04.223Z,98678.25
2023-01-13T01:00:33.142Z,98671.66
2023-01-13T01:03:01.862Z,98674.84
2023-01-13T01:05:30.449Z,98674.19
2023-01-13T01:07:59.065Z,98673.41
2023-01-13T01:10:29.168Z,98667.97
2023-01-13T01:12:57.751Z,98661.94
2023-01-13T01:15:26.623Z,98659.91
2023-01-13T01:17:55.216Z,98658.91
2023-01-13T01:20:23.795Z,98657.28
2023-01-13T01:22:52.532Z,98660.72
2023-01-13T01:25:21.084Z,98660.06
2023-01-13T01:27:51.042Z,98666.91
2023-01-13T01:30:19.814Z,98665.66
2023-01-13T01:32:48.420Z,98671.25
2023-01-13T01:35:17.039Z,98668.00
2023-01-13T01:37:45.634Z,98663.78
2023-01-13T01:40:14.424Z,98666.38
2023-01-13T01:43:00.606Z,98654.34
2023-01-13T01:45:31.564Z,98658.34
2023-01-13T01:48:03.189Z,98661.31
2023-01-13T01:50:32.460Z,98663.38
2023-01-13T01:53:05.575Z,98657.50
2023-01-13T01:55:36.854Z,98650.53
2023-01-13T01:58:08.970Z,98647.09
2023-01-13T02:00:38.994Z,98646.31
2023-01-13T02:03:08.392Z,98640.47
2023-01-13T02:05:38.823Z,98637.88
2023-01-13T02:08:09.568Z,98633.69
2023-01-13T02:10:38.807Z,98638.91
2023-01-13T02:13:09.776Z,98634.84
2023-01-13T02:15:44.164Z,98629.47
2023-01-13T02:18:39.200Z,98643.03
2023-01-13T02:21:29.138Z,98634.63
2023-01-13T02:24:54.747Z,98636.06
2023-01-13T02:27:35.436Z,98626.41
2023-01-13T02:30:34.463Z,98624.41
2023-01-13T02:33:15.907Z,98624.41
2023-01-13T02:35:50.088Z,98618.13
2023-01-13T02:38:22.296Z,98610.28
2023-01-13T02:40:56.722Z,98609.13
2023-01-13T02:43:47.707Z,98602.88
2023-01-13T02:46:21.670Z,98602.88
2023-01-13T02:48:51.695Z,98604.94
2023-01-13T02:51:23.827Z,98601.38
2023-01-13T02:53:55.208Z,98604.94
2023-01-13T02:56:24.634Z,98608.13
2023-01-13T02:58:54.989Z,98598.25
2023-01-13T03:01:25.164Z,98594.41
2023-01-13T03:03:53.916Z,98591.22
2023-01-13T03:06:39.563Z,98582.66
2023-01-13T03:09:10.593Z,98576.19
2023-01-13T03:11:47.826Z,98574.22
2023-01-13T03:14:24.836Z,98573.59
2023-01-13T03:17:04.407Z,98576.63
2023-01-13T03:19:38.135Z,98577.19
2023-01-13T03:22:19.353Z,98581.19
2023-01-13T03:24:51.320Z,98583.94
2023-01-13T03:27:24.894Z,98579.16
2023-01-13T03:29:57.964Z,98591.06
2023-01-13T03:32:29.941Z,98583.09
2023-01-13T03:35:02.624Z,98583.31
2023-01-13T03:37:34.603Z,98580.81
2023-01-13T03:40:05.922Z,98571.59
2023-01-13T03:42:36.073Z,98563.41
2023-01-13T03:45:08.259Z,98559.63
2023-01-13T03:47:42.223Z,98566.47
2023-01-13T03:50:14.878Z,98564.84
2023-01-13T03:52:46.705Z,98558.84
2023-01-13T03:55:18.556Z,98557.25
2023-01-13T03:57:50.460Z,98558.84
2023-01-13T04:00:19.875Z,98558.84
2023-01-13T04:02:52.628Z,98556.44
2023-01-13T04:05:21.549Z,98551.22
2023-01-13T04:07:57.563Z,98552.25
2023-01-13T04:10:29.376Z,98543.97
2023-01-13T04:13:02.142Z,98535.56
2023-01-13T04:15:34.293Z,98540.19
2023-01-13T04:18:11.430Z,98535.75
2023-01-13T04:20:40.817Z,98544.63
2023-01-13T04:23:09.801Z,98527.78
2023-01-13T04:25:38.523Z,98535.97
2023-01-13T04:28:07.601Z,98539.25
2023-01-13T04:30:36.384Z,98540.06
2023-01-13T04:33:06.708Z,98538.00
2023-01-13T04:35:36.197Z,98532.34
2023-01-13T04:38:06.389Z,98537.00
2023-01-13T04:40:35.137Z,98544.84
2023-01-13T04:43:04.442Z,98551.22
2023-01-13T04:45:33.211Z,98539.53
2023-01-13T04:48:01.834Z,98545.78
2023-01-13T04:50:31.926Z,98540.91
2023-01-13T04:53:01.431Z,98534.00
2023-01-13T04:55:31.751Z,98529.38
2023-01-13T04:58:04.197Z,98526.34
2023-01-13T05:00:32.906Z,98524.16
2023-01-13T05:03:01.738Z,98531.63
2023-01-13T05:05:32.035Z,98522.13
2023-01-13T05:08:00.688Z,98523.50
2023-01-13T05:10:29.485Z,98524.06
2023-01-13T05:13:15.564Z,98529.66
2023-01-13T05:16:02.302Z,98522.63
2023-01-13T05:18:31.947Z,98528.66
2023-01-13T05:21:01.951Z,98532.06
2023-01-13T05:23:53.628Z,98532.06
2023-01-13T05:26:23.971Z,98526.84
2023-01-13T05:28:52.568Z,98518.41
2023-01-13T05:31:21.182Z,98535.84
2023-01-13T05:33:49.809Z,98528.44
2023-01-13T05:36:19.781Z,98527.84
2023-01-13T05:38:48.387Z,98532.63
2023-01-13T05:41:34.514Z,98530.81
2023-01-13T05:44:03.096Z,98540.06
2023-01-13T05:46:31.724Z,98525.50
2023-01-13T05:49:01.629Z,98526.75
2023-01-13T05:51:31.591Z,98523.31
2023-01-13T05:54:00.405Z,98521.31
2023-01-13T05:56:28.973Z,98518.09
2023-01-13T05:58:57.519Z,98517.09
2023-01-13T06:01:26.119Z,98521.31
2023-01-13T06:03:54.847Z,98520.28
2023-01-13T06:06:23.554Z,98510.72
2023-01-13T06:08:53.588Z,98517.38
2023-01-13T06:11:22.232Z,98524.44
2023-01-13T06:13:50.848Z,98520.22
2023-01-13T06:16:19.505Z,98516.38
2023-01-13T06:18:48.098Z,98521.66
2023-01-13T06:21:16.735Z,98519.66
2023-01-13T06:23:45.299Z,98525.09
2023-01-13T06:26:17.661Z,98518.72
2023-01-13T06:28:46.392Z,98528.72
2023-01-13T06:31:15.057Z,98526.69
2023-01-13T06:33:47.108Z,98531.47
2023-01-13T06:36:17.976Z,98538.28
2023-01-13T06:38:48.785Z,98538.28
2023-01-13T06:41:39.181Z,98543.97
2023-01-13T06:44:06.968Z,98543.53
2023-01-13T06:46:35.814Z,98542.28
2023-01-13T06:49:04.714Z,98552.38
2023-01-13T06:51:33.306Z,98542.94
2023-01-13T06:54:01.897Z,98526.47
2023-01-13T06:56:31.949Z,98531.91
2023-01-13T06:59:00.599Z,98522.03
2023-01-13T07:01:29.719Z,98535.47
2023-01-13T07:03:58.542Z,98526.13
2023-01-13T07:06:27.383Z,98521.66
2023-01-13T07:08:56.140Z,98518.28
2023-01-13T07:11:25.005Z,98522.69
2023-01-13T07:14:26.980Z,98531.56
2023-01-13T07:16:55.679Z,98515.28
2023-01-13T07:19:24.346Z,98531.78
2023-01-13T07:21:53.412Z,98529.16
2023-01-13T07:24:22.660Z,98532.34
2023-01-13T07:26:52.137Z,98541.34
2023-01-13T07:29:22.063Z,98529.44
2023-01-13T07:31:50.763Z,98526.47
2023-01-13T07:34:19.470Z,98524.66
2023-01-13T07:36:48.084Z,98525.66
2023-01-13T07:39:16.705Z,98535.84
2023-01-13T07:42:02.925Z,98544.13
2023-01-13T07:44:32.968Z,98542.66
2023-01-13T07:47:01.620Z,98538.81
2023-01-13T07:49:30.259Z,98546.19
2023-01-13T07:51:58.881Z,98553.69
2023-01-13T07:54:39.769Z,98550.84
2023-01-13T07:57:09.141Z,98547.00
2023-01-13T07:59:39.119Z,98541.78
2023-01-13T08:02:07.930Z,98541.78
2023-01-13T08:04:36.605Z,98543.41
2023-01-13T08:07:05.595Z,98549.91
2023-01-13T08:09:34.266Z,98556.53
2023-01-13T08:12:20.411Z,98551.66
2023-01-13T08:14:51.692Z,98562.91
2023-01-13T08:17:20.679Z,98558.47
2023-01-13T08:19:49.475Z,98564.13
2023-01-13T08:22:18.058Z,98557.91
2023-01-13T08:24:46.717Z,98550.84
2023-01-13T08:27:15.400Z,98539.41
2023-01-13T08:29:44.028Z,98554.97
2023-01-13T08:32:14.098Z,98562.69
2023-01-13T08:34:42.729Z,98563.63
2023-01-13T08:37:11.319Z,98571.81
2023-01-13T08:39:39.971Z,98572.25
2023-01-13T08:42:08.555Z,98585.19
2023-01-13T08:44:37.181Z,98581.56
2023-01-13T08:47:06.441Z,98569.00
2023-01-13T08:49:36.422Z,98574.31
2023-01-13T08:52:05.643Z,98596.63
2023-01-13T08:54:34.342Z,98604.97
2023-01-13T08:57:03.434Z,98616.84
2023-01-13T08:59:32.519Z,98621.03
2023-01-13T09:02:01.514Z,98632.22
2023-01-13T09:04:30.482Z,98625.94
2023-01-13T09:07:02.230Z,98644.41
2023-01-13T09:09:30.923Z,98647.56
2023-01-13T09:12:17.036Z,98650.06
2023-01-13T09:14:45.849Z,98654.91
2023-01-13T09:17:14.709Z,98657.69
2023-01-13T09:19:43.653Z,98656.44
2023-01-13T09:22:16.057Z,98658.03
2023-01-13T09:24:44.924Z,98660.84
2023-01-13T09:27:15.173Z,98665.72
2023-01-13T09:29:44.357Z,98676.78
2023-01-13T09:32:13.861Z,98670.91
2023-01-13T09:35:00.302Z,98681.44
2023-01-13T09:37:31.844Z,98695.34
2023-01-13T09:40:00.715Z,98684.59
2023-01-13T09:42:52.277Z,98689.81
2023-01-13T09:45:23.222Z,98685.72
2023-01-13T09:47:57.625Z,98691.78
2023-01-13T09:50:30.818Z,98696.38
2023-01-13T09:53:01.689Z,98696.38
2023-01-13T09:55:34.670Z,98690.34
2023-01-13T09:58:04.374Z,98696.69
2023-01-13T10:00:37.353Z,98691.66
2023-01-13T10:03:20.254Z,98693.22
2023-01-13T10:05:56.437Z,98700.22
2023-01-13T10:08:28.393Z,98711.25
2023-01-13T10:10:59.232Z,98708.72
2023-01-13T10:13:28.963Z,98716.38
2023-01-13T10:16:14.262Z,98715.34
2023-01-13T10:18:54.757Z,98717.75
2023-01-13T10:21:45.638Z,98706.78
2023-01-13T10:24:19.915Z,98722.09
2023-01-13T10:26:53.570Z,98721.06
2023-01-13T10:29:25.728Z,98728.31
2023-01-13T10:31:54.507Z,98730.91
2023-01-13T10:34:24.368Z,98728.94
2023-01-13T10:37:01.607Z,98731.91
2023-01-13T10:39:40.255Z,98728.09
2023-01-13T10:42:14.787Z,98723.63
2023-01-13T10:44:51.795Z,98716.88
2023-01-13T10:47:23.688Z,98726.91
2023-01-13T10:50:07.497Z,98721.03
2023-01-13T10:52:42.675Z,98719.16
2023-01-13T10:55:26.562Z,98731.81
2023-01-13T10:57:55.236Z,98734.00
2023-01-13T11:00:31.686Z,98735.25
2023-01-13T11:03:18.595Z,98734.88
2023-01-13T11:05:54.955Z,98739.97
2023-01-13T11:08:25.361Z,98741.34
2023-01-13T11:10:56.407Z,98745.78
2023-01-13T11:13:31.129Z,98748.19
2023-01-13T11:16:04.691Z,98759.84
2023-01-13T11:18:41.115Z,98757.50
2023-01-13T11:21:16.547Z,98752.50
2023-01-13T11:23:49.117Z,98748.69
2023-01-13T11:26:22.994Z,98771.75
2023-01-13T11:28:55.025Z,98772.34
2023-01-13T11:31:25.496Z,98767.91
2023-01-13T11:33:56.459Z,98771.94
2023-01-13T11:36:26.732Z,98789.97
2023-01-13T11:38:56.679Z,98786.78
2023-01-13T11:41:32.480Z,98779.38
2023-01-13T11:44:11.363Z,98788.00
2023-01-13T11:46:40.956Z,98789.81
2023-01-13T11:49:12.358Z,98774.16
2023-01-13T11:51:44.714Z,98776.97
2023-01-13T11:54:34.283Z,98789.00
2023-01-13T11:57:28.379Z,98795.63
2023-01-13T12:00:28.592Z,98794.44
2023-01-13T12:03:12.526Z,98793.22
2023-01-13T12:05:42.598Z,98780.00
2023-01-13T12:08:18.780Z,98776.41
2023-01-13T12:11:00.869Z,98788.03
2023-01-13T12:13:37.555Z,98787.19
2023-01-13T12:16:15.698Z,98767.75
2023-01-13T12:18:59.370Z,98772.97
2023-01-13T12:21:30.046Z,98781.56
2023-01-13T12:24:09.394Z,98785.41
2023-01-13T12:26:40.526Z,98786.78
2023-01-13T12:29:13.342Z,98805.22
2023-01-13T12:31:42.894Z,98792.00
2023-01-13T12:34:25.556Z,98801.84
2023-01-13T12:37:00.213Z,98817.50
2023-01-13T12:39:36.949Z,98813.63
2023-01-13T12:42:28.680Z,98820.25
2023-01-13T12:45:22.481Z,98823.44
2023-01-13T12:47:51.244Z,98826.09
2023-01-13T12:50:43.062Z,98829.31
2023-01-13T12:53:32.989Z,98831.69
2023-01-13T12:56:24.159Z,98844.56
2023-01-13T12:58:52.796Z,98825.69
2023-01-13T13:01:35.983Z,98848.16
2023-01-13T13:04:11.904Z,98848.97
2023-01-13T13:06:43.286Z,98845.34
2023-01-13T13:09:20.291Z,98845.56
2023-01-13T13:12:07.757Z,98839.72
2023-01-13T13:15:03.796Z,98842.28
2023-01-13T13:18:03.464Z,98834.44
2023-01-13T13:20:55.145Z,98838.88
2023-01-13T13:23:50.185Z,98826.13
2023-01-13T13:26:25.043Z,98827.06
2023-01-13T13:29:07.295Z,98824.81
2023-01-13T13:31:50.570Z,98821.00
2023-01-13T13:34:28.729Z,98819.72
2023-01-13T13:37:21.832Z,98826.13
2023-01-13T13:40:08.148Z,98831.22
2023-01-13T13:42:56.116Z,98826.31
2023-01-13T13:45:44.028Z,98830.22
2023-01-13T13:48:24.537Z,98841.84
2023-01-13T13:50:58.231Z,98831.63
2023-01-13T13:53:28.710Z,98829.88
2023-01-13T13:55:59.809Z,98840.25
2023-01-13T13:58:29.588Z,98848.25
2023-01-13T14:00:58.548Z,98847.47
2023-01-13T14:03:30.557Z,98858.72
2023-01-13T14:06:02.634Z,98872.16
2023-01-13T14:08:34.188Z,98869.19
2023-01-13T14:11:02.927Z,98863.13
2023-01-13T14:13:32.492Z,98869.19
2023-01-13T14:16:02.776Z,98869.03
2023-01-13T14:18:33.268Z,98883.53
2023-01-13T14:21:05.414Z,98894.28
2023-01-13T14:23:35.062Z,98892.31
2023-01-13T14:26:07.701Z,98890.28
2023-01-13T14:28:38.337Z,98894.47
2023-01-13T14:31:08.669Z,98907.06
2023-01-13T14:33:39.633Z,98914.81
2023-01-13T14:36:14.797Z,98919.97
2023-01-13T14:38:44.851Z,98925.78
2023-01-13T14:41:19.423Z,98915.72
2023-01-13T14:43:49.432Z,98922.72
2023-01-13T14:46:21.006Z,98912.09
2023-01-13T14:48:51.863Z,98917.75
2023-01-13T14:51:27.975Z,98914.53
2023-01-13T14:53:57.385Z,98912.34
2023-01-13T14:56:47.743Z,98933.16
2023-01-13T14:59:43.492Z,98932.38
2023-01-13T15:02:38.151Z,98942.59
2023-01-13T15:05:47.326Z,98956.81
2023-01-13T15:08:38.584Z,98970.03
2023-01-13T15:11:08.834Z,98966.22
2023-01-13T15:13:42.891Z,98974.44
2023-01-13T15:16:18.594Z,98979.63
2023-01-13T15:18:47.518Z,98969.03
2023-01-13T15:21:16.647Z,98959.63
2023-01-13T15:23:47.252Z,98968.00
2023-01-13T15:26:21.647Z,98982.59
2023-01-13T15:28:51.503Z,98974.13
2023-01-13T15:31:20.977Z,98970.50
2023-01-13T15:33:50.279Z,98976.47
2023-01-13T15:36:22.038Z,98975.09
2023-01-13T15:38:52.101Z,98967.88
2023-01-13T15:41:41.795Z,98985.69
2023-01-13T15:44:29.664Z,98982.25
2023-01-13T15:46:58.743Z,98997.22
2023-01-13T15:49:34.600Z,98992.41
2023-01-13T15:52:04.254Z,98996.38
2023-01-13T15:54:34.256Z,99011.13
2023-01-13T15:57:02.880Z,99012.31
2023-01-13T15:59:31.458Z,99011.91
2023-01-13T16:02:00.067Z,99011.72
2023-01-13T16:04:28.713Z,99010.72
2023-01-13T16:06:57.361Z,99012.69
2023-01-13T16:09:26.020Z,99029.91
2023-01-13T16:11:56.079Z,99034.50
2023-01-13T16:14:24.694Z,99036.03
2023-01-13T16:16:53.362Z,99052.66
2023-01-13T16:19:22.063Z,99053.00
2023-01-13T16:21:50.737Z,99064.16
2023-01-13T16:24:19.402Z,99065.53
2023-01-13T16:26:48.110Z,99069.19
2023-01-13T16:29:18.164Z,99070.34
2023-01-13T16:31:46.801Z,99073.13
2023-01-13T16:34:15.470Z,99073.97
2023-01-13T16:36:46.218Z,99074.19
2023-01-13T16:39:21.496Z,99073.81
2023-01-13T16:41:50.138Z,99073.28
2023-01-13T16:44:20.245Z,99073.81
2023-01-13T16:46:48.899Z,99081.09
2023-01-13T16:49:18.301Z,99075.06
2023-01-13T16:51:47.072Z,99087.00
2023-01-13T16:54:15.766Z,99091.97
2023-01-13T16:56:44.383Z,99090.34
2023-01-13T16:59:14.569Z,99090.72
2023-01-13T17:01:45.751Z,99096.91
2023-01-13T17:04:16.018Z,99089.88
2023-01-13T17:06:49.345Z,99103.25
2023-01-13T17:09:20.164Z,99097.25
2023-01-13T17:11:48.799Z,99099.88
2023-01-13T17:14:19.572Z,99114.81
2023-01-13T17:16:50.047Z,99115.38
2023-01-13T17:19:19.644Z,99112.16
2023-01-13T17:21:48.427Z,99112.16
2023-01-13T17:24:17.066Z,99125.97
2023-01-13T17:26:49.152Z,99131.53
2023-01-13T17:29:19.265Z,99131.72
2023-01-13T17:31:49.404Z,99133.47
2023-01-13T17:34:18.243Z,99134.13
2023-01-13T17:36:46.898Z,99141.91
2023-01-13T17:39:17.190Z,99151.34
2023-01-13T17:41:45.950Z,99145.78
2023-01-13T17:44:15.671Z,99153.28
2023-01-13T17:46:44.751Z,99164.66
2023-01-13T17:49:15.513Z,99160.84
2023-01-13T17:51:44.729Z,99154.28
2023-01-13T17:54:13.337Z,99161.28
2023-01-13T17:56:42.607Z,99166.09
2023-01-13T17:59:12.543Z,99176.78
2023-01-13T18:01:41.616Z,99180.25
2023-01-13T18:04:16.599Z,99181.75
2023-01-13T18:06:45.615Z,99184.03
2023-01-13T18:09:14.297Z,99185.78
2023-01-13T18:11:43.154Z,99186.63
2023-01-13T18:14:12.274Z,99186.06
2023-01-13T18:16:40.948Z,99195.13
2023-01-13T18:19:28.693Z,99192.16
2023-01-13T18:22:16.093Z,99181.75
2023-01-13T18:25:02.253Z,99190.91
2023-01-13T18:27:33.356Z,99182.13
2023-01-13T18:30:03.224Z,99199.94
2023-01-13T18:32:33.507Z,99211.78
2023-01-13T18:35:06.683Z,99218.84
2023-01-13T18:37:38.671Z,99218.66
2023-01-13T18:40:09.255Z,99225.03
2023-01-13T18:42:52.093Z,99227.44
2023-01-13T18:45:21.779Z,99214.81
2023-01-13T18:47:50.534Z,99223.34
2023-01-13T18:50:19.529Z,99240.03
2023-01-13T18:52:49.637Z,99236.03
2023-01-13T18:55:18.497Z,99249.16
2023-01-13T18:57:47.181Z,99246.56
2023-01-13T19:00:18.900Z,99251.97
2023-01-13T19:02:48.221Z,99261.72
2023-01-13T19:05:17.004Z,99271.78
2023-01-13T19:07:50.821Z,99270.44
2023-01-13T19:10:21.186Z,99278.25
2023-01-13T19:12:49.757Z,99275.09
2023-01-13T19:15:18.606Z,99275.78
2023-01-13T19:17:47.230Z,99281.72
2023-01-13T19:20:16.059Z,99284.19
2023-01-13T19:22:46.152Z,99282.69
2023-01-13T19:25:14.802Z,99290.31
2023-01-13T19:27:44.811Z,99308.50
2023-01-13T19:30:14.881Z,99313.06
2023-01-13T19:32:43.507Z,99319.88
2023-01-13T19:35:13.001Z,99322.66
2023-01-13T19:37:43.083Z,99331.41
2023-01-13T19:40:14.222Z,99338.22
2023-01-13T19:43:02.758Z,99350.88
2023-01-13T19:45:33.745Z,99353.16
2023-01-13T19:48:05.449Z,99354.28
2023-01-13T19:50:37.411Z,99349.16
2023-01-13T19:53:06.068Z,99358.41
2023-01-13T19:55:35.018Z,99347.00
2023-01-13T19:58:05.025Z,99350.97
2023-01-13T20:00:34.820Z,99354.88
2023-01-13T20:03:08.005Z,99364.28
2023-01-13T20:05:36.689Z,99372.88
2023-01-13T20:08:05.454Z,99367.34
2023-01-13T20:10:34.067Z,99370.91
2023-01-13T20:13:02.746Z,99364.56
2023-01-13T20:15:32.962Z,99365.59
2023-01-13T20:18:01.636Z,99363.28
2023-01-13T20:20:30.269Z,99362.81
2023-01-13T20:22:59.461Z,99374.06
2023-01-13T20:25:28.751Z,99370.06
2023-01-13T20:27:58.461Z,99374.00
2023-01-13T20:30:27.097Z,99372.38
2023-01-13T20:32:57.069Z,99374.25
2023-01-13T20:35:29.584Z,99380.06
2023-01-13T20:37:58.507Z,99380.03
2023-01-13T20:40:27.151Z,99379.09
2023-01-13T20:42:54.927Z,99389.84
2023-01-13T20:45:23.655Z,99372.19
2023-01-13T20:47:52.277Z,99387.50
2023-01-13T20:50:22.369Z,99383.81
2023-01-13T20:52:52.567Z,99384.38
2023-01-13T20:55:21.722Z,99383.75
2023-01-13T20:57:50.595Z,99381.78
2023-01-13T21:00:20.337Z,99388.91
2023-01-13T21:02:48.923Z,99393.78
2023-01-13T21:05:17.861Z,99390.38
2023-01-13T21:07:47.894Z,99389.25
2023-01-13T21:10:16.943Z,99387.94
2023-01-13T21:13:03.274Z,99397.66
2023-01-13T21:15:31.902Z,99400.25
2023-01-13T21:18:18.412Z,99400.56
2023-01-13T21:20:47.008Z,99420.34
2023-01-13T21:23:16.950Z,99426.88
2023-01-13T21:25:45.570Z,99419.22
2023-01-13T21:28:16.145Z,99417.91
2023-01-13T21:30:45.518Z,99422.75
2023-01-13T21:33:14.725Z,99423.09
2023-01-13T21:35:43.498Z,99434.66
2023-01-13T21:38:12.567Z,99426.75
2023-01-13T21:40:42.600Z,99427.53
2023-01-13T21:43:30.878Z,99420.22
2023-01-13T21:46:31.394Z,99422.16
2023-01-13T21:49:00.135Z,99424.31
2023-01-13T21:51:28.828Z,99430.81
2023-01-13T21:53:57.581Z,99432.75
2023-01-13T21:56:27.688Z,99439.75
2023-01-13T21:58:57.069Z,99444.78
2023-01-13T22:01:26.598Z,99455.28
2023-01-13T22:04:13.313Z,99467.13
2023-01-13T22:06:42.087Z,99463.88
2023-01-13T22:09:10.812Z,99474.44
2023-01-13T22:11:40.858Z,99472.63
2023-01-13T22:14:10.674Z,99476.69
2023-01-13T22:16:42.009Z,99475.91
2023-01-13T22:19:11.408Z,99465.50
2023-01-13T22:21:40.902Z,99477.97
2023-01-13T22:24:10.559Z,99471.00
2023-01-13T22:26:40.609Z,99474.59
2023-01-13T22:29:09.250Z,99481.53
2023-01-13T22:31:39.162Z,99484.31
2023-01-13T22:34:07.840Z,99479.94
2023-01-13T22:36:36.439Z,99488.53
2023-01-13T22:39:05.403Z,99472.97
2023-01-13T22:41:34.050Z,99482.53
2023-01-13T22:44:04.008Z,99477.22
2023-01-13T22:46:32.650Z,99470.03
2023-01-13T22:49:01.313Z,99481.44
2023-01-13T22:51:30.525Z,99483.38
2023-01-13T22:53:59.137Z,99479.13
2023-01-13T22:56:27.810Z,99477.84
2023-01-13T22:58:57.102Z,99468.41
2023-01-13T23:01:28.471Z,99475.09
2023-01-13T23:03:57.742Z,99475.56
2023-01-13T23:06:28.200Z,99465.72
2023-01-13T23:08:57.197Z,99467.69
2023-01-13T23:11:28.405Z,99475.78
2023-01-13T23:14:01.605Z,99459.22
2023-01-13T23:16:33.520Z,99463.63
2023-01-13T23:19:02.297Z,99462.97
2023-01-13T23:21:32.939Z,99478.53
2023-01-13T23:24:01.709Z,99482.75
2023-01-13T23:26:31.569Z,99485.53
2023-01-13T23:29:00.989Z,99475.63
2023-01-13T23:31:30.991Z,99478.88
2023-01-13T23:34:00.303Z,99476.28
2023-01-13T23:36:29.407Z,99469.31
2023-01-13T23:38:59.230Z,99466.84
2023-01-13T23:41:29.263Z,99460.88
2023-01-13T23:43:59.978Z,99457.97
2023-01-13T23:46:31.209Z,99459.31
2023-01-13T23:48:59.859Z,99462.84
2023-01-13T23:51:29.988Z,99457.81
2023-01-13T23:53:59.441Z,99460.09
2023-01-13T23:56:29.810Z,99465.97
2023-01-13T23:58:58.735Z,99458.84
